Artemas, Pennsylvania
Current Conditions -  °F | °C
As of 12:56 PM on Saturday 20 Dec 2014 (Local Time) from KCBE Reporting Station
Clear Clear  
Wind Chill: 34°   Ceiling: Unl
Heat Index: 34°   Visibility: 10mi
Dew Point: 21°   Wind: 0mph
Humidity: 60%   Direction: NA
Pressure: 30.27"   Gusts: NA
Location:  39.75°N, 78.44°W
Report Text: KCBE 201756Z AUTO 00000KT 10SM CLR 01/M06 A3027 RMK AO1
Loading
Personal Weather Stations






























Interactive Weather Map New forecast layout! Learn more

10-Day Weather Forecast

Advertisements
Track Severe Weather on mobile